createdAt,value
2023-04-04T00:00:24.823Z,2.40
2023-04-04T00:03:32.352Z,3.10
2023-04-04T00:06:41.283Z,2.90
2023-04-04T00:09:48.785Z,3.10
2023-04-04T00:12:56.146Z,3.20
2023-04-04T00:16:03.359Z,2.70
2023-04-04T00:19:12.952Z,2.80
2023-04-04T00:22:20.013Z,3.90
2023-04-04T00:25:27.900Z,3.00
2023-04-04T00:28:38.325Z,2.70
2023-04-04T00:31:45.445Z,2.30
2023-04-04T00:34:53.323Z,2.80
2023-04-04T00:38:02.621Z,2.50
2023-04-04T00:41:09.690Z,2.70
2023-04-04T00:44:17.687Z,2.90
2023-04-04T00:47:26.785Z,3.20
2023-04-04T00:50:33.741Z,2.70
2023-04-04T00:53:41.389Z,2.20
2023-04-04T00:56:48.734Z,2.40
2023-04-04T00:59:57.763Z,2.30
2023-04-04T01:03:05.746Z,2.80
2023-04-04T01:06:13.160Z,2.70
2023-04-04T01:09:21.880Z,2.30
2023-04-04T01:12:29.629Z,2.50
2023-04-04T01:15:36.826Z,3.30
2023-04-04T01:18:45.557Z,2.40
2023-04-04T01:21:53.270Z,2.60
2023-04-04T01:25:00.680Z,2.60
2023-04-04T01:28:09.737Z,3.00
2023-04-04T01:31:17.100Z,2.60
2023-04-04T01:34:24.433Z,2.70
2023-04-04T01:37:31.996Z,2.50
2023-04-04T01:40:41.162Z,3.00
2023-04-04T01:43:49.222Z,3.50
2023-04-04T01:46:56.249Z,2.30
2023-04-04T01:50:05.294Z,2.90
2023-04-04T01:53:13.328Z,2.40
2023-04-04T01:56:20.508Z,2.20
2023-04-04T01:59:29.814Z,2.30
2023-04-04T02:02:37.262Z,2.60
2023-04-04T02:05:44.426Z,2.30
2023-04-04T02:08:53.675Z,2.50
2023-04-04T02:12:01.520Z,2.40
2023-04-04T02:15:08.631Z,2.00
2023-04-04T02:18:16.434Z,2.40
2023-04-04T02:21:25.255Z,2.10
2023-04-04T02:24:32.467Z,2.50
2023-04-04T02:27:40.187Z,2.50
2023-04-04T02:30:48.968Z,2.80
2023-04-04T02:33:56.379Z,2.50
2023-04-04T02:37:03.984Z,2.30
2023-04-04T02:40:12.781Z,2.60
2023-04-04T02:43:20.116Z,2.50
2023-04-04T02:46:27.657Z,2.40
2023-04-04T02:49:36.741Z,2.20
2023-04-04T02:52:44.410Z,2.00
2023-04-04T02:55:51.787Z,2.60
2023-04-04T02:59:01.058Z,2.30
2023-04-04T03:02:08.569Z,2.40
2023-04-04T03:05:16.156Z,2.30
2023-04-04T03:08:24.092Z,2.50
2023-04-04T03:11:33.032Z,2.00
2023-04-04T03:14:40.595Z,2.30
2023-04-04T03:17:48.642Z,3.60
2023-04-04T03:20:57.180Z,2.30
2023-04-04T03:24:04.949Z,2.10
2023-04-04T03:27:12.813Z,2.20
2023-04-04T03:30:21.301Z,2.20
2023-04-04T03:33:28.966Z,2.70
2023-04-04T03:36:36.053Z,2.50
2023-04-04T03:39:44.875Z,2.60
2023-04-04T03:42:52.948Z,2.40
2023-04-04T03:46:00.378Z,2.30
2023-04-04T03:49:07.537Z,2.20
2023-04-04T03:52:16.563Z,2.00
2023-04-04T03:55:24.253Z,2.30
2023-04-04T03:58:31.839Z,2.30
2023-04-04T04:01:40.367Z,2.00
2023-04-04T04:04:49.675Z,2.90
2023-04-04T04:07:57.264Z,2.10
2023-04-04T04:11:05.584Z,1.90
2023-04-04T04:14:13.314Z,2.20
2023-04-04T04:17:20.768Z,2.00
2023-04-04T04:20:29.733Z,1.80
2023-04-04T04:23:37.564Z,2.20
2023-04-04T04:26:45.012Z,2.30
2023-04-04T04:29:52.840Z,2.70
2023-04-04T04:33:01.900Z,1.90
2023-04-04T04:36:09.124Z,2.20
2023-04-04T04:39:16.912Z,2.10
2023-04-04T04:42:25.744Z,3.20
2023-04-04T04:45:33.465Z,2.40
2023-04-04T04:48:40.591Z,2.70
2023-04-04T04:51:49.301Z,2.80
2023-04-04T04:54:57.574Z,2.40
2023-04-04T04:58:05.614Z,2.50
2023-04-04T05:01:14.450Z,2.50
2023-04-04T05:04:22.211Z,2.40
2023-04-04T05:07:30.458Z,2.10
2023-04-04T05:10:39.110Z,2.50
2023-04-04T05:13:47.087Z,2.60
2023-04-04T05:16:54.546Z,2.50
2023-04-04T05:20:02.008Z,2.80
2023-04-04T05:23:11.092Z,2.50
2023-04-04T05:26:18.290Z,2.70
2023-04-04T05:29:25.505Z,2.10
2023-04-04T05:32:34.530Z,2.40
2023-04-04T05:35:42.004Z,2.50
2023-04-04T05:38:49.305Z,2.90
2023-04-04T05:41:58.009Z,2.80
2023-04-04T05:45:05.561Z,2.70
2023-04-04T05:48:12.947Z,2.30
2023-04-04T05:51:21.561Z,2.50
2023-04-04T05:54:28.738Z,2.80
2023-04-04T05:57:36.590Z,2.60
2023-04-04T06:00:45.835Z,2.20
2023-04-04T06:03:54.597Z,2.90
2023-04-04T06:07:02.457Z,2.40
2023-04-04T06:10:09.737Z,2.50
2023-04-04T06:13:18.611Z,2.70
2023-04-04T06:16:26.340Z,3.00
2023-04-04T06:19:33.688Z,2.40
2023-04-04T06:22:42.400Z,2.60
2023-04-04T06:25:49.371Z,2.20
2023-04-04T06:28:56.760Z,2.20
2023-04-04T06:32:05.735Z,1.90
2023-04-04T06:35:12.673Z,2.80
2023-04-04T06:38:20.496Z,1.80
2023-04-04T06:41:27.858Z,2.10
2023-04-04T06:44:36.268Z,2.20
2023-04-04T06:47:43.793Z,1.90
2023-04-04T06:50:51.301Z,2.00
2023-04-04T06:54:00.173Z,2.40
2023-04-04T06:57:07.667Z,1.70
2023-04-04T07:00:14.955Z,1.90
2023-04-04T07:03:23.682Z,1.70
2023-04-04T07:06:31.133Z,1.90
2023-04-04T07:09:38.668Z,1.60
2023-04-04T07:12:47.558Z,2.10
2023-04-04T07:15:55.210Z,1.90
2023-04-04T07:19:02.542Z,2.20
2023-04-04T07:22:11.363Z,1.80
2023-04-04T07:25:18.733Z,1.60
2023-04-04T07:28:26.443Z,2.00
2023-04-04T07:31:33.652Z,1.80
2023-04-04T07:34:42.381Z,1.40
2023-04-04T07:37:50.118Z,1.60
2023-04-04T07:40:57.356Z,1.70
2023-04-04T07:44:05.957Z,1.80
2023-04-04T07:47:14.095Z,1.80
2023-04-04T07:50:21.366Z,1.20
2023-04-04T07:53:29.980Z,1.30
2023-04-04T07:56:37.830Z,1.40
2023-04-04T07:59:44.847Z,1.20
2023-04-04T08:02:54.274Z,1.50
2023-04-04T08:06:01.937Z,1.10
2023-04-04T08:09:08.958Z,1.00
2023-04-04T08:12:16.672Z,1.00
2023-04-04T08:15:25.550Z,1.10
2023-04-04T08:18:32.671Z,0.80
2023-04-04T08:21:40.405Z,1.00
2023-04-04T08:24:48.735Z,1.20
2023-04-04T08:27:56.249Z,1.20
2023-04-04T08:31:03.906Z,0.90
2023-04-04T08:34:12.428Z,1.20
2023-04-04T08:37:19.975Z,1.50
2023-04-04T08:40:27.690Z,1.20
2023-04-04T08:43:36.151Z,1.00
2023-04-04T08:46:43.851Z,1.90
2023-04-04T08:49:51.661Z,1.30
2023-04-04T08:52:59.225Z,1.40
2023-04-04T08:56:08.539Z,1.50
2023-04-04T08:59:15.941Z,1.20
2023-04-04T09:02:23.616Z,1.10
2023-04-04T09:05:33.035Z,0.90
2023-04-04T09:08:40.464Z,1.20
2023-04-04T09:11:48.001Z,0.60
2023-04-04T09:14:57.272Z,0.90
2023-04-04T09:18:04.839Z,0.90
2023-04-04T09:21:12.241Z,0.90
2023-04-04T09:24:21.394Z,0.90
2023-04-04T09:27:28.677Z,1.00
2023-04-04T09:30:36.250Z,1.40
2023-04-04T09:33:43.686Z,1.00
2023-04-04T09:36:52.870Z,0.90
2023-04-04T09:40:00.284Z,1.00
2023-04-04T09:43:07.803Z,0.80
2023-04-04T09:46:17.085Z,1.20
2023-04-04T09:49:24.449Z,1.00
2023-04-04T09:52:31.986Z,0.70
2023-04-04T09:55:41.210Z,1.00
2023-04-04T09:59:02.301Z,0.80
2023-04-04T10:01:53.376Z,1.00
2023-04-04T10:05:06.345Z,0.80
2023-04-04T10:08:03.336Z,1.00
2023-04-04T10:11:12.605Z,0.90
2023-04-04T10:14:21.562Z,0.90
2023-04-04T10:17:29.228Z,1.00
2023-04-04T10:20:36.714Z,0.90
2023-04-04T10:23:44.200Z,0.50
2023-04-04T10:26:53.242Z,1.00
2023-04-04T10:30:00.704Z,0.90
2023-04-04T10:33:08.527Z,0.90
2023-04-04T10:36:17.543Z,1.00
2023-04-04T10:39:25.036Z,1.00
2023-04-04T10:42:33.009Z,1.00
2023-04-04T10:45:41.843Z,0.60
2023-04-04T10:48:49.704Z,0.80
2023-04-04T10:51:57.602Z,0.90
2023-04-04T10:55:06.175Z,0.70
2023-04-04T10:58:13.833Z,0.80
2023-04-04T11:01:21.933Z,0.60
2023-04-04T11:04:29.861Z,0.70
2023-04-04T11:07:39.035Z,0.60
2023-04-04T11:10:46.434Z,0.60
2023-04-04T11:13:53.810Z,1.00
2023-04-04T11:17:02.428Z,1.20
2023-04-04T11:20:09.846Z,0.60
2023-04-04T11:23:17.397Z,0.70
2023-04-04T11:26:26.234Z,0.60
2023-04-04T11:29:34.023Z,0.90
2023-04-04T11:32:41.218Z,0.80
2023-04-04T11:35:50.869Z,1.20
2023-04-04T11:38:58.842Z,0.80
2023-04-04T11:42:05.945Z,0.70
2023-04-04T11:45:13.962Z,0.90
2023-04-04T11:48:22.823Z,0.70
2023-04-04T11:51:30.143Z,0.90
2023-04-04T11:54:37.854Z,0.40
2023-04-04T11:57:46.540Z,0.60
2023-04-04T12:00:54.041Z,1.00
2023-04-04T12:04:01.861Z,0.70
2023-04-04T12:07:10.597Z,0.80
2023-04-04T12:10:17.973Z,0.60
2023-04-04T12:13:25.411Z,1.00
2023-04-04T12:16:34.576Z,0.80
2023-04-04T12:19:41.891Z,0.90
2023-04-04T12:22:50.526Z,0.50
2023-04-04T12:25:58.511Z,0.80
2023-04-04T12:29:06.966Z,0.70
2023-04-04T12:32:14.381Z,0.90
2023-04-04T12:35:22.396Z,1.20
2023-04-04T12:38:31.272Z,0.60
2023-04-04T12:41:38.717Z,0.80
2023-04-04T12:44:46.328Z,1.20
2023-04-04T12:47:54.942Z,0.70
2023-04-04T12:51:02.757Z,1.00
2023-04-04T12:54:10.467Z,1.20
2023-04-04T12:57:18.919Z,1.00
2023-04-04T13:00:26.951Z,0.80
2023-04-04T13:03:34.672Z,1.40
2023-04-04T13:06:43.639Z,0.50
2023-04-04T13:09:51.193Z,0.90
2023-04-04T13:12:58.999Z,1.40
2023-04-04T13:16:06.567Z,0.70
2023-04-04T13:19:15.803Z,0.90
2023-04-04T13:22:23.284Z,0.70
2023-04-04T13:25:31.425Z,1.20
2023-04-04T13:28:40.167Z,0.60
2023-04-04T13:31:48.065Z,0.60
2023-04-04T13:34:55.886Z,1.10
2023-04-04T13:38:04.178Z,1.20
2023-04-04T13:41:12.136Z,0.70
2023-04-04T13:44:19.856Z,1.00
2023-04-04T13:47:28.421Z,0.50
2023-04-04T13:50:36.276Z,0.80
2023-04-04T13:53:43.983Z,0.70
2023-04-04T13:56:51.225Z,0.70
2023-04-04T14:00:00.362Z,0.70
2023-04-04T14:03:07.948Z,0.50
2023-04-04T14:06:15.335Z,0.70
2023-04-04T14:09:24.579Z,0.60
2023-04-04T14:12:32.003Z,0.40
2023-04-04T14:15:40.056Z,0.70
2023-04-04T14:18:49.317Z,0.60
2023-04-04T14:21:56.823Z,0.50
2023-04-04T14:25:04.221Z,0.70
2023-04-04T14:28:12.739Z,0.70
2023-04-04T14:31:20.723Z,0.60
2023-04-04T14:34:28.633Z,1.10
2023-04-04T14:37:35.724Z,0.50
2023-04-04T14:40:45.087Z,0.50
2023-04-04T14:43:52.737Z,0.50
2023-04-04T14:46:59.886Z,0.60
2023-04-04T14:50:08.813Z,0.50
2023-04-04T14:53:16.779Z,0.50
2023-04-04T14:56:24.138Z,0.60
2023-04-04T14:59:33.657Z,0.70
2023-04-04T15:02:41.622Z,0.70
2023-04-04T15:05:48.698Z,0.60
2023-04-04T15:08:57.985Z,0.80
2023-04-04T15:12:05.422Z,0.90
2023-04-04T15:15:12.938Z,0.60
2023-04-04T15:18:20.952Z,0.90
2023-04-04T15:21:29.431Z,0.90
2023-04-04T15:24:37.265Z,0.60
2023-04-04T15:27:44.524Z,0.50
2023-04-04T15:30:53.690Z,0.50
2023-04-04T15:34:01.019Z,0.70
2023-04-04T15:37:08.389Z,0.70
2023-04-04T15:40:17.395Z,0.90
2023-04-04T15:43:24.773Z,0.80
2023-04-04T15:46:32.110Z,0.70
2023-04-04T15:49:41.348Z,0.70
2023-04-04T15:52:48.820Z,1.00
2023-04-04T15:55:56.132Z,0.90
2023-04-04T15:59:04.916Z,0.90
2023-04-04T16:02:11.902Z,0.70
2023-04-04T16:05:19.361Z,0.60
2023-04-04T16:08:26.710Z,0.80
2023-04-04T16:11:35.277Z,0.80
2023-04-04T16:14:43.055Z,0.60
2023-04-04T16:17:50.874Z,0.70
2023-04-04T16:20:59.797Z,0.60
2023-04-04T16:24:07.527Z,0.90
2023-04-04T16:27:15.278Z,1.50
2023-04-04T16:30:23.781Z,1.50
2023-04-04T16:33:31.732Z,2.20
2023-04-04T16:36:39.170Z,1.00
2023-04-04T16:39:47.902Z,0.70
2023-04-04T16:42:55.279Z,0.90
2023-04-04T16:46:02.610Z,0.90
2023-04-04T16:49:09.785Z,0.80
2023-04-04T16:52:18.865Z,0.90
2023-04-04T16:55:26.097Z,0.70
2023-04-04T16:58:33.418Z,0.80
2023-04-04T17:01:42.538Z,1.00
2023-04-04T17:04:49.965Z,0.70
2023-04-04T17:07:57.154Z,0.70
2023-04-04T17:11:06.261Z,0.70
2023-04-04T17:14:14.550Z,0.90
2023-04-04T17:17:22.556Z,1.20
2023-04-04T17:20:33.647Z,1.00
2023-04-04T17:23:41.746Z,1.00
2023-04-04T17:26:49.187Z,1.10
2023-04-04T17:30:01.716Z,1.10
2023-04-04T17:33:00.517Z,0.90
2023-04-04T17:36:07.602Z,0.90
2023-04-04T17:39:15.681Z,1.00
2023-04-04T17:42:25.165Z,1.00
2023-04-04T17:45:32.349Z,1.00
2023-04-04T17:48:40.066Z,1.00
2023-04-04T17:51:49.254Z,0.90
2023-04-04T17:54:56.397Z,2.30
2023-04-04T17:58:04.041Z,1.90
2023-04-04T18:01:13.034Z,1.20
2023-04-04T18:04:20.630Z,0.90
2023-04-04T18:07:28.617Z,1.10
2023-04-04T18:10:35.919Z,1.10
2023-04-04T18:13:45.061Z,0.70
2023-04-04T18:16:52.606Z,1.70
2023-04-04T18:19:59.780Z,1.20
2023-04-04T18:23:09.276Z,1.10
2023-04-04T18:26:16.877Z,1.10
2023-04-04T18:29:24.459Z,1.10
2023-04-04T18:32:33.826Z,0.90
2023-04-04T18:35:41.134Z,0.80
2023-04-04T18:38:48.658Z,1.00
2023-04-04T18:41:57.872Z,1.30
2023-04-04T18:45:05.342Z,0.90
2023-04-04T18:48:13.477Z,0.80
2023-04-04T18:51:23.814Z,0.90
2023-04-04T18:54:31.078Z,1.10
2023-04-04T18:57:38.893Z,0.80
2023-04-04T19:00:48.073Z,1.20
2023-04-04T19:03:56.674Z,1.30
2023-04-04T19:07:04.265Z,0.80
2023-04-04T19:10:12.081Z,0.90
2023-04-04T19:13:21.012Z,1.20
2023-04-04T19:16:28.660Z,1.40
2023-04-04T19:19:36.577Z,1.20
2023-04-04T19:22:45.432Z,1.30
2023-04-04T19:25:53.455Z,1.20
2023-04-04T19:29:02.055Z,1.10
2023-04-04T19:32:10.814Z,0.90
2023-04-04T19:35:17.931Z,1.00
2023-04-04T19:38:25.899Z,0.80
2023-04-04T19:41:33.285Z,1.20
2023-04-04T19:44:42.168Z,1.00
2023-04-04T19:47:49.927Z,1.80
2023-04-04T19:50:57.329Z,1.00
2023-04-04T19:54:06.098Z,1.60
2023-04-04T19:57:13.872Z,1.20
2023-04-04T20:00:20.887Z,1.40
2023-04-04T20:03:30.204Z,1.40
2023-04-04T20:06:37.882Z,1.40
2023-04-04T20:09:44.872Z,1.40
2023-04-04T20:12:54.071Z,1.20
2023-04-04T20:16:02.047Z,1.80
2023-04-04T20:19:09.238Z,1.40
2023-04-04T20:22:17.255Z,1.30
2023-04-04T20:25:26.176Z,1.30
2023-04-04T20:28:33.674Z,1.80
2023-04-04T20:31:41.418Z,1.20
2023-04-04T20:34:50.718Z,1.50
2023-04-04T20:37:58.130Z,2.60
2023-04-04T20:41:05.548Z,2.30
2023-04-04T20:44:14.490Z,2.80
2023-04-04T20:47:21.899Z,2.80
2023-04-04T20:50:29.339Z,2.70
2023-04-04T20:53:38.369Z,4.10
2023-04-04T20:56:45.328Z,3.20
2023-04-04T20:59:52.996Z,3.50
2023-04-04T21:03:02.146Z,3.30
2023-04-04T21:06:09.050Z,3.20
2023-04-04T21:09:16.909Z,2.80
2023-04-04T21:12:24.525Z,2.60
2023-04-04T21:15:32.959Z,2.60
2023-04-04T21:18:40.291Z,2.10
2023-04-04T21:21:47.583Z,2.70
2023-04-04T21:24:56.423Z,2.40
2023-04-04T21:28:04.161Z,2.30
2023-04-04T21:31:11.712Z,2.20
2023-04-04T21:34:20.568Z,2.10
2023-04-04T21:37:28.192Z,2.20
2023-04-04T21:40:35.597Z,2.10
2023-04-04T21:43:44.304Z,2.00
2023-04-04T21:46:51.911Z,2.50
2023-04-04T21:49:59.136Z,1.80
2023-04-04T21:53:06.504Z,1.80
2023-04-04T21:56:15.490Z,1.90
2023-04-04T21:59:23.189Z,1.80
2023-04-04T22:02:30.672Z,1.80
2023-04-04T22:05:39.730Z,1.90
2023-04-04T22:08:47.363Z,1.50
2023-04-04T22:11:54.829Z,1.60
2023-04-04T22:15:03.633Z,1.50
2023-04-04T22:18:11.352Z,1.50
2023-04-04T22:21:18.443Z,1.70
2023-04-04T22:24:27.485Z,1.60
2023-04-04T22:27:35.230Z,1.90
2023-04-04T22:30:42.782Z,2.30
2023-04-04T22:33:50.568Z,2.00
2023-04-04T22:36:59.620Z,2.40
2023-04-04T22:40:06.542Z,1.80
2023-04-04T22:43:14.272Z,1.90
2023-04-04T22:46:23.194Z,2.10
2023-04-04T22:49:30.246Z,2.40
2023-04-04T22:52:37.921Z,2.30
2023-04-04T22:55:46.642Z,2.40
2023-04-04T22:58:54.046Z,2.30
2023-04-04T23:02:01.631Z,2.30
2023-04-04T23:05:10.369Z,2.10
2023-04-04T23:08:17.625Z,2.10
2023-04-04T23:11:25.287Z,2.30
2023-04-04T23:14:32.320Z,2.40
2023-04-04T23:17:41.524Z,1.80
2023-04-04T23:20:49.213Z,2.20
2023-04-04T23:23:56.608Z,2.20
2023-04-04T23:27:05.394Z,1.80
2023-04-04T23:30:12.598Z,2.10
2023-04-04T23:33:20.112Z,2.10
2023-04-04T23:36:29.003Z,2.00
2023-04-04T23:39:36.343Z,2.00
2023-04-04T23:42:43.599Z,2.10
2023-04-04T23:45:52.595Z,2.30
2023-04-04T23:48:59.874Z,1.90
2023-04-04T23:52:07.156Z,2.00
2023-04-04T23:55:15.955Z,2.30
2023-04-04T23:58:23.638Z,2.50
